Time;durP1;ratioP1;P1;durP2;ratioP2;P2;SDS_P1;SDS_P2;PMS_P1;PMS_P2;Temp;Humidity;BMP_temperature;BMP_pressure;BME280_temperature;BME280_humidity;BME280_pressure;Samples;Min_cycle;Max_cycle;Signal;HPM_P1;HPM_P2
2021/06/25 00:02:44;;;;;;;12.45;4.28;;;;;;;26.24;61.35;99703.03;6229408;28;20046;-62
2021/06/25 00:05:45;;;;;;;17.85;4.80;;;;;;;26.21;61.61;99689.25;6247177;28;20412;-64
2021/06/25 00:08:46;;;;;;;21.40;5.22;;;;;;;26.13;62.24;99693.78;6246928;28;20064;-64
2021/06/25 00:11:47;;;;;;;20.30;4.40;;;;;;;26.13;62.54;99690.31;6247088;28;20045;-63
2021/06/25 00:14:47;;;;;;;16.03;4.97;;;;;;;26.06;62.95;99690.25;6229419;28;20045;-64
2021/06/25 00:17:48;;;;;;;16.60;5.18;;;;;;;26.02;64.10;99680.19;6246967;28;20146;-64
2021/06/25 00:20:49;;;;;;;16.00;5.43;;;;;;;25.99;63.63;99685.97;6245429;28;20037;-63
2021/06/25 00:23:50;;;;;;;15.35;5.40;;;;;;;25.98;63.77;99686.97;6245511;28;20637;-64
2021/06/25 00:26:51;;;;;;;14.73;5.15;;;;;;;25.89;64.02;99680.97;6247185;28;20042;-63
2021/06/25 00:29:52;;;;;;;23.60;4.93;;;;;;;25.90;64.00;99687.97;6246378;28;20401;-64
2021/06/25 00:32:53;;;;;;;27.08;5.18;;;;;;;25.84;64.04;99684.25;6245874;28;20476;-63
2021/06/25 00:35:53;;;;;;;19.30;4.93;;;;;;;25.83;64.07;99677.25;6246555;28;20124;-64
2021/06/25 00:38:54;;;;;;;13.27;4.30;;;;;;;25.84;64.01;99660.19;6229082;28;20063;-64
2021/06/25 00:41:55;;;;;;;15.15;5.03;;;;;;;25.85;63.67;99664.50;6246359;28;20118;-63
2021/06/25 00:44:57;;;;;;;16.80;5.05;;;;;;;25.74;64.02;99663.25;6246422;28;20072;-63
2021/06/25 00:47:58;;;;;;;17.77;4.97;;;;;;;25.70;64.42;99672.69;6245327;28;20052;-63
2021/06/25 00:50:59;;;;;;;18.48;4.80;;;;;;;25.67;64.58;99670.41;6245122;28;20041;-64
2021/06/25 00:54:00;;;;;;;14.20;4.63;;;;;;;25.71;64.25;99663.66;6246369;28;20136;-63
2021/06/25 00:57:01;;;;;;;19.67;4.43;;;;;;;25.66;64.10;99659.94;6246307;28;20048;-63
2021/06/25 01:00:04;;;;;;;15.90;5.00;;;;;;;25.66;64.15;99666.13;6246238;28;20485;-62
2021/06/25 01:03:05;;;;;;;12.60;4.72;;;;;;;25.65;63.22;99666.31;6246140;28;20667;-62
2021/06/25 01:06:06;;;;;;;19.80;5.00;;;;;;;25.65;63.69;99669.78;6246221;28;20456;-62
2021/06/25 01:09:08;;;;;;;17.63;4.82;;;;;;;25.72;63.34;99667.16;6246155;28;20037;-63
2021/06/25 01:12:10;;;;;;;15.48;4.65;;;;;;;25.71;62.70;99665.50;6244742;28;20060;-63
2021/06/25 01:15:13;;;;;;;11.98;4.75;;;;;;;25.71;63.11;99671.66;6244812;28;20044;-63
2021/06/25 01:18:14;;;;;;;16.38;4.60;;;;;;;25.70;62.82;99658.53;6245963;28;20468;-62
2021/06/25 01:21:14;;;;;;;16.17;5.03;;;;;;;25.65;62.97;99661.78;6244753;28;20042;-63
2021/06/25 01:24:15;;;;;;;20.60;4.57;;;;;;;25.58;62.93;99660.13;6246151;28;20049;-62
2021/06/25 01:27:16;;;;;;;19.30;4.55;;;;;;;25.59;62.87;99659.91;6244810;28;20057;-62
2021/06/25 01:30:23;;;;;;;16.17;4.35;;;;;;;25.64;62.67;99649.47;6244698;28;20050;-62
2021/06/25 01:33:24;;;;;;;16.48;4.70;;;;;;;25.61;62.41;99649.84;6245835;28;20111;-62
2021/06/25 01:36:24;;;;;;;20.77;4.60;;;;;;;25.59;62.57;99632.38;6245905;28;20485;-62
2021/06/25 01:39:27;;;;;;;20.87;4.90;;;;;;;25.60;62.55;99640.19;6244669;28;20042;-63
2021/06/25 01:42:33;;;;;;;20.90;5.10;;;;;;;25.58;62.78;99639.59;6246907;28;20330;-62
2021/06/25 01:45:36;;;;;;;15.52;4.53;;;;;;;25.52;63.17;99635.03;6250380;28;20041;-62
2021/06/25 01:48:37;;;;;;;18.13;5.25;;;;;;;25.46;63.08;99628.66;6250226;28;20507;-62
2021/06/25 01:51:38;;;;;;;18.02;5.20;;;;;;;25.47;63.03;99618.78;6250090;28;20045;-62
2021/06/25 01:54:39;;;;;;;14.63;4.30;;;;;;;25.39;63.57;99621.63;6239735;28;20071;-63
2021/06/25 01:57:40;;;;;;;20.95;5.00;;;;;;;25.37;64.15;99626.34;6230761;28;20053;-63
2021/06/25 02:00:43;;;;;;;;;;;;;;;25.30;64.37;99621.81;6225759;28;20053;-62
2021/06/25 02:03:46;;;;;;;19.70;4.80;;;;;;;25.26;64.47;99609.88;6243881;28;19967;-63
2021/06/25 02:06:47;;;;;;;13.18;4.38;;;;;;;25.13;65.09;99607.16;6249924;28;20045;-63
2021/06/25 02:09:48;;;;;;;11.03;4.37;;;;;;;25.12;65.33;99609.00;6249699;28;20050;-63
2021/06/25 02:12:48;;;;;;;21.63;5.45;;;;;;;25.08;65.49;99623.78;6231547;28;20049;-63
2021/06/25 02:15:49;;;;;;;24.50;5.10;;;;;;;25.18;64.78;99609.22;6224996;28;20060;-63
2021/06/25 02:18:50;;;;;;;22.25;5.28;;;;;;;25.17;65.08;99604.91;6225060;28;20064;-62
2021/06/25 02:21:51;;;;;;;21.57;5.47;;;;;;;25.08;65.57;99604.25;6224874;28;20046;-63
2021/06/25 02:24:51;;;;;;;16.38;4.70;;;;;;;25.09;65.33;99597.91;6223673;28;20042;-63
2021/06/25 02:27:52;;;;;;;17.93;5.00;;;;;;;25.09;65.36;99597.91;6224659;28;20129;-62
2021/06/25 02:30:57;;;;;;;17.87;4.83;;;;;;;25.09;65.75;99589.88;6224623;28;20099;-62
2021/06/25 02:33:58;;;;;;;19.73;4.82;;;;;;;25.05;65.73;99589.44;6223676;28;20057;-63
2021/06/25 02:36:59;;;;;;;14.50;4.30;;;;;;;25.03;65.77;99590.69;6224519;28;20502;-62
2021/06/25 02:40:00;;;;;;;14.43;5.25;;;;;;;24.93;66.57;99586.56;6224916;28;20392;-62
2021/06/25 02:43:02;;;;;;;17.30;4.45;;;;;;;24.98;66.36;99580.63;6224372;28;20049;-63
2021/06/25 02:46:03;;;;;;;15.27;4.43;;;;;;;24.95;66.94;99591.66;6224961;28;20046;-63
2021/06/25 02:49:04;;;;;;;15.68;5.22;;;;;;;24.88;66.87;99604.97;6224341;28;20046;-62
2021/06/25 02:52:05;;;;;;;23.15;5.03;;;;;;;24.85;66.74;99601.88;6224144;28;20472;-62
2021/06/25 02:55:07;;;;;;;23.77;5.17;;;;;;;24.85;67.20;99617.88;6223039;28;20042;-62
2021/06/25 02:58:08;;;;;;;25.20;5.22;;;;;;;24.82;67.38;99619.13;6222794;28;20287;-62
2021/06/25 03:01:09;;;;;;;20.97;4.83;;;;;;;24.83;67.01;99619.94;6222770;28;20046;-62
2021/06/25 03:04:10;;;;;;;25.38;5.40;;;;;;;24.77;67.55;99621.56;6223802;28;20042;-62
2021/06/25 03:07:11;;;;;;;16.48;4.68;;;;;;;24.76;67.66;99625.22;6223879;28;20386;-62
2021/06/25 03:10:12;;;;;;;20.27;4.60;;;;;;;24.80;67.79;99633.69;6241451;28;20041;-62
2021/06/25 03:13:13;;;;;;;20.58;4.93;;;;;;;24.85;66.78;99632.06;6238737;28;20049;-61
2021/06/25 03:16:14;;;;;;;25.80;4.70;;;;;;;24.84;67.45;99624.25;6223840;28;20120;-62
2021/06/25 03:19:15;;;;;;;22.13;6.07;;;;;;;24.75;67.74;99634.28;6244472;28;20459;-62
2021/06/25 03:22:16;;;;;;;14.35;4.90;;;;;;;24.76;67.96;99627.09;6246691;28;20052;-63
2021/06/25 03:25:17;;;;;;;20.08;5.07;;;;;;;24.82;67.66;99624.44;6248576;28;20065;-62
2021/06/25 03:28:18;;;;;;;36.17;5.38;;;;;;;24.82;67.53;99624.44;6229492;28;20050;-61
2021/06/25 03:31:21;;;;;;;22.42;5.28;;;;;;;24.77;68.02;99624.22;6223212;28;20103;-61
2021/06/25 03:34:22;;;;;;;21.30;4.85;;;;;;;24.77;68.28;99636.72;6223581;28;20092;-62
2021/06/25 03:37:23;;;;;;;24.90;5.78;;;;;;;24.76;68.25;99635.09;6223065;28;20054;-62
2021/06/25 03:40:27;;;;;;;24.60;5.55;;;;;;;24.74;68.56;99641.44;6223017;28;20096;-62
2021/06/25 03:43:28;;;;;;;23.40;6.60;;;;;;;24.69;69.15;99630.53;6222951;28;20485;-63
2021/06/25 03:46:29;;;;;;;18.35;6.07;;;;;;;24.73;69.43;99628.31;6221756;28;20046;-62
2021/06/25 03:49:30;;;;;;;23.02;5.68;;;;;;;24.75;69.98;99626.28;6222814;28;20049;-62
2021/06/25 03:52:31;;;;;;;23.58;6.88;;;;;;;24.83;69.68;99620.78;6223031;28;20118;-62
2021/06/25 03:55:32;;;;;;;20.23;6.00;;;;;;;24.88;68.99;99620.19;6222666;28;20033;-62
2021/06/25 03:58:33;;;;;;;31.57;6.47;;;;;;;24.85;69.30;99624.06;6221529;28;20058;-62
2021/06/25 04:01:33;;;;;;;37.53;7.20;;;;;;;24.84;69.79;99629.59;6221303;28;20389;-63
2021/06/25 04:04:35;;;;;;;38.57;6.90;;;;;;;24.80;70.53;99620.34;6222381;28;20112;-63
2021/06/25 04:07:37;;;;;;;33.78;6.22;;;;;;;24.79;70.21;99618.69;6222676;28;20100;-63
2021/06/25 04:10:38;;;;;;;45.97;6.82;;;;;;;24.80;70.03;99644.34;6222390;28;20049;-62
2021/06/25 04:13:38;;;;;;;28.63;6.75;;;;;;;24.83;70.40;99682.13;6222345;28;20448;-63
2021/06/25 04:16:39;;;;;;;26.50;7.43;;;;;;;24.88;70.41;99692.22;6222285;28;20561;-63
2021/06/25 04:19:40;;;;;;;21.87;6.13;;;;;;;24.87;71.99;99680.72;6222226;28;20054;-63
2021/06/25 04:22:41;;;;;;;25.07;6.03;;;;;;;24.89;71.37;99670.69;6220993;28;20489;-63
2021/06/25 04:25:42;;;;;;;26.38;6.18;;;;;;;24.93;71.33;99668.44;6222238;28;20473;-62
2021/06/25 04:28:43;;;;;;;17.80;5.50;;;;;;;25.04;69.80;99683.06;6222226;28;20042;-63
2021/06/25 04:31:50;;;;;;;26.10;6.30;;;;;;;25.10;69.98;99707.13;6220918;28;20050;-63
2021/06/25 04:34:51;;;;;;;31.60;7.20;;;;;;;25.21;69.74;99704.97;6221996;28;20330;-62
2021/06/25 04:37:52;;;;;;;29.95;6.50;;;;;;;25.25;70.74;99688.34;6220801;28;20378;-62
2021/06/25 04:40:53;;;;;;;26.35;6.25;;;;;;;25.32;69.53;99661.66;6220739;28;20048;-63
2021/06/25 04:43:54;;;;;;;32.95;6.68;;;;;;;25.47;66.75;99666.84;6221953;28;20401;-62
2021/06/25 04:46:55;;;;;;;27.02;6.68;;;;;;;25.58;67.14;99694.88;6237055;28;20042;-63
2021/06/25 04:49:55;;;;;;;29.63;7.68;;;;;;;25.62;67.74;99698.78;6221865;28;20042;-63
2021/06/25 04:52:56;;;;;;;31.13;7.57;;;;;;;25.65;66.30;99671.66;6221824;28;20111;-63
2021/06/25 04:55:57;;;;;;;30.57;7.07;;;;;;;25.60;66.79;99642.06;6220408;28;20049;-63
2021/06/25 04:58:58;;;;;;;34.73;6.70;;;;;;;25.62;66.09;99645.34;6221537;28;20550;-63
2021/06/25 05:01:58;;;;;;;36.60;7.10;;;;;;;25.70;66.68;99666.53;6221792;28;20576;-62
2021/06/25 05:04:59;;;;;;;26.43;6.67;;;;;;;25.74;66.58;99676.63;6220463;28;20279;-63
2021/06/25 05:08:04;;;;;;;29.75;6.65;;;;;;;25.76;68.05;99659.53;6220892;28;20050;-63
2021/06/25 05:11:06;;;;;;;36.25;7.47;;;;;;;25.76;65.71;99641.69;6221632;28;20092;-63
2021/06/25 05:14:08;;;;;;;29.80;6.88;;;;;;;25.82;65.92;99624.84;6227497;28;20443;-63
2021/06/25 05:17:09;;;;;;;26.02;6.45;;;;;;;25.90;64.90;99623.84;6246924;28;20084;-63
2021/06/25 05:20:10;;;;;;;30.83;7.25;;;;;;;25.94;64.97;99646.44;6250883;28;20046;-63
2021/06/25 05:23:13;;;;;;;27.38;6.78;;;;;;;26.04;65.77;99654.91;6241368;28;20053;-63
2021/06/25 05:26:14;;;;;;;34.35;7.55;;;;;;;26.08;67.35;99664.16;6234842;28;20048;-63
2021/06/25 05:29:15;;;;;;;42.53;7.60;;;;;;;26.16;66.92;99667.66;6249802;28;20116;-62
2021/06/25 05:32:17;;;;;;;27.65;7.07;;;;;;;26.11;65.16;99679.81;6245308;28;20053;-63
2021/06/25 05:35:17;;;;;;;41.08;8.30;;;;;;;26.13;65.31;99658.22;6225965;28;20373;-63
2021/06/25 05:38:18;;;;;;;34.87;7.23;;;;;;;26.27;64.41;99659.03;6225890;28;20041;-65
2021/06/25 05:41:19;;;;;;;37.05;8.05;;;;;;;26.42;65.73;99665.00;6233961;28;20052;-65
2021/06/25 05:44:20;;;;;;;34.45;7.60;;;;;;;26.42;63.34;99659.66;6232346;28;20041;-66
2021/06/25 05:47:20;;;;;;;37.80;7.22;;;;;;;26.44;62.63;99665.63;6245741;28;20052;-65
2021/06/25 05:50:22;;;;;;;46.08;8.10;;;;;;;26.54;63.25;99682.06;6232119;28;20346;-65
2021/06/25 05:53:23;;;;;;;53.10;7.25;;;;;;;26.52;62.09;99688.63;6245107;28;20481;-65
2021/06/25 05:56:23;;;;;;;33.53;7.90;;;;;;;26.53;64.21;99685.75;6248820;28;20037;-65
2021/06/25 05:59:24;;;;;;;43.57;7.97;;;;;;;26.51;63.77;99666.44;6249897;28;20337;-64
2021/06/25 06:02:25;;;;;;;25.17;7.13;;;;;;;26.58;64.21;99654.94;6231695;28;20049;-65
2021/06/25 06:05:26;;;;;;;33.70;7.47;;;;;;;26.68;65.02;99656.13;6225126;28;20121;-65
2021/06/25 06:08:26;;;;;;;31.15;7.05;;;;;;;26.78;62.72;99652.22;6225236;28;20275;-64
2021/06/25 06:11:27;;;;;;;26.43;6.73;;;;;;;26.73;62.86;99653.69;6223990;28;20049;-65
2021/06/25 06:14:28;;;;;;;40.05;7.60;;;;;;;26.80;62.30;99667.03;6225065;28;20283;-63
2021/06/25 06:17:29;;;;;;;36.10;7.80;;;;;;;26.84;63.40;99672.81;6224670;28;20049;-63
2021/06/25 06:20:30;;;;;;;40.40;7.22;;;;;;;26.72;63.34;99676.09;6242542;28;20545;-63
2021/06/25 06:39:30;;;;;;;30.77;6.82;;;;;;;27.28;63.08;99658.69;6223131;28;20041;-64
2021/06/25 06:42:31;;;;;;;32.65;8.15;;;;;;;27.39;62.91;99651.03;6222887;28;20042;-64
2021/06/25 06:45:32;;;;;;;33.20;7.65;;;;;;;27.36;62.12;99638.88;6224026;28;20045;-64
2021/06/25 06:48:33;;;;;;;48.45;8.70;;;;;;;27.39;61.86;99643.81;6222784;28;20049;-64
2021/06/25 06:51:34;;;;;;;43.65;7.68;;;;;;;27.42;64.35;99675.50;6222785;28;20139;-64
2021/06/25 06:54:35;;;;;;;31.30;8.40;;;;;;;27.52;64.39;99681.25;6223887;28;20042;-64
2021/06/25 06:57:36;;;;;;;34.10;8.15;;;;;;;27.67;64.57;99680.13;6223862;28;20053;-63
2021/06/25 07:00:37;;;;;;;35.80;8.40;;;;;;;27.84;62.02;99686.66;6222310;28;20497;-64
2021/06/25 07:03:38;;;;;;;56.28;8.38;;;;;;;27.93;63.24;99679.19;6223684;28;20393;-62
2021/06/25 07:06:39;;;;;;;30.48;7.57;;;;;;;27.90;61.33;99680.47;6222629;28;20045;-64
2021/06/25 07:09:40;;;;;;;33.47;7.78;;;;;;;27.98;62.34;99673.19;6230274;28;20029;-64
2021/06/25 07:12:42;;;;;;;31.35;7.55;;;;;;;28.08;60.54;99677.03;6236922;28;20493;-64
2021/06/25 07:15:43;;;;;;;54.33;8.77;;;;;;;28.10;60.33;99682.16;6231996;28;20049;-65
2021/06/25 07:18:43;;;;;;;40.70;7.72;;;;;;;28.16;61.30;99681.31;6226979;28;20038;-65
2021/06/25 07:21:44;;;;;;;48.22;8.70;;;;;;;28.29;59.87;99677.69;6235024;28;20108;-66
2021/06/25 07:24:45;;;;;;;36.20;7.80;;;;;;;28.25;61.36;99671.97;6238239;28;20378;-65
2021/06/25 07:27:46;;;;;;;43.83;8.13;;;;;;;28.32;59.79;99672.72;6246640;28;20475;-65
2021/06/25 07:30:47;;;;;;;39.15;8.15;;;;;;;28.40;61.02;99676.19;6247798;28;20050;-65
2021/06/25 07:33:47;;;;;;;42.00;8.82;;;;;;;28.44;61.03;99669.34;6247696;28;20090;-65
2021/06/25 07:36:49;;;;;;;43.45;8.18;;;;;;;28.48;60.96;99665.97;6247506;28;20041;-65
2021/06/25 07:39:49;;;;;;;;;;;;;;;28.61;60.59;99666.94;6246368;28;20475;-65
2021/06/25 07:42:50;;;;;;;51.73;7.97;;;;;;;28.75;63.52;99662.28;6246298;28;19928;-65
2021/06/25 07:45:51;;;;;;;39.85;7.40;;;;;;;28.90;59.36;99662.72;6246183;28;20472;-65
2021/06/25 07:48:52;;;;;;;46.58;8.55;;;;;;;28.97;59.48;99668.00;6238753;28;20049;-65
2021/06/25 07:51:52;;;;;;;53.78;7.97;;;;;;;29.00;59.15;99670.25;6222613;28;20045;-65
2021/06/25 07:54:53;;;;;;;31.98;7.18;;;;;;;29.05;58.19;99676.56;6221687;28;20045;-65
2021/06/25 07:57:54;;;;;;;41.70;8.23;;;;;;;29.16;60.12;99668.84;6221294;28;20481;-65
2021/06/25 08:00:54;;;;;;;39.00;8.00;;;;;;;29.27;58.14;99670.78;6222579;28;20049;-65
2021/06/25 08:03:55;;;;;;;46.85;8.15;;;;;;;29.29;58.48;99674.06;6221226;28;20129;-65
2021/06/25 08:06:56;;;;;;;46.15;8.23;;;;;;;29.42;59.72;99681.16;6221459;28;20050;-65
2021/06/25 08:09:57;;;;;;;44.15;8.10;;;;;;;29.51;61.35;99682.47;6222369;28;20073;-66
2021/06/25 08:12:58;;;;;;;49.67;9.18;;;;;;;29.66;57.65;99676.69;6233765;28;20411;-66
2021/06/25 08:15:58;;;;;;;44.78;7.75;;;;;;;29.80;57.87;99680.88;6245597;28;20045;-66
2021/06/25 08:19:00;;;;;;;46.58;7.88;;;;;;;29.86;55.66;99679.97;6245844;28;20041;-66
2021/06/25 08:22:02;;;;;;;43.40;8.23;;;;;;;29.89;55.30;99682.19;6246577;28;20048;-66
2021/06/25 08:25:03;;;;;;;44.25;7.90;;;;;;;29.82;56.11;99681.47;6240094;28;20046;-67
2021/06/25 08:28:04;;;;;;;44.90;7.68;;;;;;;29.93;57.08;99677.16;6222040;28;20488;-66
2021/06/25 08:31:05;;;;;;;47.58;9.10;;;;;;;30.11;57.58;99678.97;6221955;28;20050;-67
2021/06/25 08:34:10;;;;;;;40.25;7.53;;;;;;;30.25;57.68;99674.19;6220837;28;20052;-67
2021/06/25 08:37:11;;;;;;;49.20;7.93;;;;;;;30.37;55.81;99674.22;6221767;28;20038;-67
2021/06/25 08:40:12;;;;;;;37.72;7.20;;;;;;;30.45;52.29;99676.56;6221876;28;20049;-67
2021/06/25 08:43:14;;;;;;;55.92;7.47;;;;;;;30.60;51.15;99670.72;6204912;28;20042;-67
2021/06/25 08:46:16;;;;;;;52.63;7.82;;;;;;;30.67;51.98;99672.25;6246492;28;20550;-66
2021/06/25 08:49:19;;;;;;;55.05;8.73;;;;;;;30.80;49.67;99673.06;6246275;28;20049;-66
2021/06/25 08:52:20;;;;;;;37.22;6.95;;;;;;;30.85;49.35;99674.00;6229379;28;20453;-66
2021/06/25 08:55:22;;;;;;;44.28;7.38;;;;;;;30.86;49.09;99674.81;6239975;28;20050;-66
2021/06/25 08:58:23;;;;;;;45.67;8.30;;;;;;;30.97;51.44;99679.41;6237261;28;20132;-66
2021/06/25 09:01:25;;;;;;;56.13;7.80;;;;;;;31.15;50.53;99689.19;6235190;28;20396;-67
2021/06/25 09:04:33;;;;;;;51.38;8.18;;;;;;;31.25;49.32;99688.59;6238416;28;20124;-66
2021/06/25 09:07:44;;;;;;;60.72;8.45;;;;;;;31.36;47.25;99695.00;6235898;28;20052;-66
2021/06/25 09:10:46;;;;;;;46.00;7.90;;;;;;;31.25;47.68;99691.28;6232960;28;20065;-66
2021/06/25 09:13:47;;;;;;;57.88;8.05;;;;;;;31.28;46.98;99702.41;6231966;28;20125;-66
2021/06/25 09:16:48;;;;;;;66.03;7.60;;;;;;;31.39;47.54;99710.72;6226315;28;20084;-66
2021/06/25 09:19:49;;;;;;;;;;;;;;;31.50;45.80;99716.09;6238271;28;20041;-66
2021/06/25 09:22:50;;;;;;;39.53;6.93;;;;;;;31.63;44.89;99709.59;6238507;28;20346;-66
2021/06/25 09:25:55;;;;;;;52.50;7.80;;;;;;;31.64;44.78;99707.72;6235492;28;20052;-66
2021/06/25 09:29:09;;;;;;;39.33;7.53;;;;;;;31.80;44.74;99704.25;6233722;28;20321;-66
2021/06/25 09:32:11;;;;;;;49.13;7.40;;;;;;;31.92;44.34;99696.91;6226474;28;20122;-66
2021/06/25 09:35:18;;;;;;;32.55;6.38;;;;;;;32.17;44.12;99697.63;6224906;28;20045;-66
2021/06/25 09:38:39;;;;;;;45.33;7.35;;;;;;;32.28;44.37;99697.53;6225745;28;20092;-65
2021/06/25 09:41:43;;;;;;;45.15;7.18;;;;;;;32.30;42.30;99691.91;6216832;28;20096;-66
2021/06/25 09:45:00;;;;;;;54.85;7.22;;;;;;;32.45;41.69;99699.41;6233353;28;20041;-66
2021/06/25 09:48:01;;;;;;;40.65;7.20;;;;;;;32.52;40.54;99691.97;6248881;28;20424;-66
2021/06/25 09:51:10;;;;;;;;;;;;;;;32.61;39.55;99698.63;6249497;28;20087;-65
2021/06/25 09:54:14;;;;;;;35.63;6.28;;;;;;;32.54;39.09;99692.59;6250070;28;20391;-65
2021/06/25 09:57:15;;;;;;;42.63;6.75;;;;;;;32.67;39.76;99702.22;6249913;28;20222;-66
2021/06/25 10:00:23;;;;;;;39.65;6.18;;;;;;;32.80;37.77;99696.47;6249703;28;20393;-66
2021/06/25 10:03:24;;;;;;;50.78;6.28;;;;;;;32.82;37.83;99688.09;6246836;28;20041;-66
2021/06/25 10:06:25;;;;;;;46.60;5.90;;;;;;;32.85;37.57;99693.03;6227951;28;20088;-67
2021/06/25 10:09:26;;;;;;;30.67;4.80;;;;;;;32.94;36.23;99694.22;6229669;28;20050;-67
2021/06/25 10:12:27;;;;;;;19.20;4.80;;;;;;;33.02;35.06;99685.69;6247157;28;20136;-66
2021/06/25 10:15:28;;;;;;;30.35;5.47;;;;;;;33.11;35.72;99686.94;6225860;28;20057;-64
2021/06/25 10:18:30;;;;;;;29.38;5.55;;;;;;;33.17;34.96;99695.88;6228070;28;20397;-63
2021/06/25 10:21:32;;;;;;;33.70;5.72;;;;;;;33.16;37.33;99696.16;6224861;28;20354;-62
2021/06/25 10:24:34;;;;;;;32.55;5.20;;;;;;;33.23;36.48;99699.47;6224295;28;20049;-63
2021/06/25 10:27:35;;;;;;;39.28;5.53;;;;;;;33.34;36.33;99690.44;6223263;28;20048;-63
2021/06/25 10:30:36;;;;;;;31.27;4.97;;;;;;;33.41;34.16;99690.25;6223331;28;20092;-63
2021/06/25 10:33:38;;;;;;;30.63;5.63;;;;;;;33.43;34.96;99686.22;6224262;28;20046;-62
2021/06/25 10:36:41;;;;;;;31.35;4.95;;;;;;;33.59;34.40;99689.09;6224327;28;20042;-62
2021/06/25 10:39:42;;;;;;;34.28;5.57;;;;;;;33.68;34.22;99693.00;6223152;28;20046;-66
2021/06/25 10:42:43;;;;;;;33.53;5.13;;;;;;;33.79;33.91;99693.91;6224125;28;20100;-66
2021/06/25 10:45:44;;;;;;;34.03;5.07;;;;;;;33.59;33.25;99687.19;6224188;28;20042;-63
2021/06/25 10:48:55;;;;;;;23.60;3.95;;;;;;;33.72;32.23;99696.81;6222805;28;20453;-66
2021/06/25 10:52:09;;;;;;;29.67;4.22;;;;;;;33.76;30.15;99683.59;6224413;28;20228;-66
2021/06/25 10:55:12;;;;;;;21.05;3.08;;;;;;;33.92;26.69;99679.97;6224340;28;20065;-66
2021/06/25 10:58:21;;;;;;;16.75;3.22;;;;;;;34.02;28.59;99681.97;6223461;28;20050;-66
2021/06/25 11:01:49;;;;;;;21.38;3.63;;;;;;;34.19;28.79;99693.50;6223685;28;20049;-66
2021/06/25 11:04:50;;;;;;;22.45;4.03;;;;;;;34.14;28.75;99698.84;6223748;28;20046;-66
2021/06/25 11:08:13;;;;;;;21.30;4.32;;;;;;;34.19;27.85;99688.09;6222393;28;20405;-66
2021/06/25 11:11:27;;;;;;;20.02;3.10;;;;;;;34.40;24.85;99696.38;6223294;28;20258;-66
2021/06/25 11:14:28;;;;;;;31.45;3.78;;;;;;;34.56;24.95;99694.59;6221677;28;20052;-66
2021/06/25 11:17:55;;;;;;;21.90;3.25;;;;;;;34.55;25.00;99688.34;6223219;28;20405;-66
2021/06/25 11:21:05;;;;;;;12.50;2.95;;;;;;;34.58;25.17;99695.94;6222224;28;20085;-66
2021/06/25 11:24:06;;;;;;;22.35;3.50;;;;;;;34.52;25.62;99695.09;6221997;28;20378;-66
2021/06/25 11:27:07;;;;;;;21.15;3.60;;;;;;;34.59;25.27;99686.72;6205639;28;20050;-66
2021/06/25 11:30:08;;;;;;;19.95;3.50;;;;;;;34.83;26.20;99680.97;6223021;28;20042;-67
2021/06/25 11:33:32;;;;;;;17.17;3.40;;;;;;;34.94;25.39;99682.63;6223148;28;20049;-66
2021/06/25 11:36:53;;;;;;;27.60;3.75;;;;;;;34.91;26.05;99678.56;6222823;28;20133;-66
2021/06/25 11:39:54;;;;;;;30.90;4.03;;;;;;;34.90;25.80;99673.38;6221899;28;20062;-66
2021/06/25 11:42:55;;;;;;;25.05;3.63;;;;;;;34.84;26.27;99682.56;6221071;28;20057;-66
2021/06/25 11:45:56;;;;;;;34.22;3.88;;;;;;;34.76;27.69;99683.91;6224579;28;20140;-66
2021/06/25 11:49:03;;;;;;;14.52;3.35;;;;;;;34.91;25.48;99669.63;6230012;28;20367;-66
2021/06/25 11:52:09;;;;;;;19.48;3.08;;;;;;;35.11;25.46;99674.31;6227127;28;20472;-65
2021/06/25 11:55:12;;;;;;;21.33;3.58;;;;;;;34.99;26.01;99671.81;6241106;28;20045;-64
2021/06/25 11:58:19;;;;;;;23.38;3.30;;;;;;;35.30;26.24;99661.13;6247678;28;20072;-65
2021/06/25 12:01:21;;;;;;;23.00;3.75;;;;;;;35.72;25.69;99669.09;6247680;28;20454;-65
2021/06/25 12:04:33;;;;;;;17.92;3.50;;;;;;;35.90;25.98;99673.19;6247880;28;20507;-63
2021/06/25 12:07:34;;;;;;;16.10;3.35;;;;;;;36.35;24.40;99667.25;6247588;28;20053;-63
2021/06/25 12:10:35;;;;;;;35.30;4.05;;;;;;;37.06;23.30;99668.97;6245775;28;20156;-63
2021/06/25 12:13:36;;;;;;;31.27;3.97;;;;;;;37.50;23.07;99669.03;6246968;28;20049;-64
2021/06/25 12:16:40;;;;;;;20.67;3.75;;;;;;;38.52;21.32;99654.94;6245717;28;20086;-65
2021/06/25 12:20:01;;;;;;;31.05;3.75;;;;;;;39.35;19.99;99664.59;6233830;28;20137;-65
2021/06/25 12:23:04;;;;;;;19.00;3.05;;;;;;;39.62;18.35;99649.47;6222242;28;20569;-63
2021/06/25 12:26:26;;;;;;;24.52;3.80;;;;;;;38.99;19.78;99647.88;6221986;28;20092;-64
2021/06/25 12:29:29;;;;;;;24.10;3.22;;;;;;;39.82;19.64;99651.88;6222198;28;20038;-63
2021/06/25 12:32:29;;;;;;;18.08;3.20;;;;;;;38.97;19.52;99634.53;6221030;28;20444;-64
2021/06/25 12:35:32;;;;;;;26.85;3.15;;;;;;;38.52;20.06;99644.84;6220818;28;20108;-63
2021/06/25 12:38:34;;;;;;;22.40;2.92;;;;;;;38.26;20.99;99633.38;6234576;28;20111;-62
2021/06/25 12:41:42;;;;;;;21.30;2.90;;;;;;;37.47;20.70;99627.97;6245257;28;20044;-64
2021/06/25 12:44:44;;;;;;;23.23;3.38;;;;;;;36.97;21.53;99627.16;6244217;28;20037;-64
2021/06/25 12:47:45;;;;;;;14.88;3.10;;;;;;;36.24;22.41;99636.56;6245795;28;20469;-61
2021/06/25 12:50:47;;;;;;;13.95;3.00;;;;;;;36.18;22.77;99613.22;6246243;28;20057;-61
2021/06/25 12:53:50;;;;;;;17.90;2.72;;;;;;;36.13;23.32;99608.56;6246704;28;20049;-61
2021/06/25 12:56:51;;;;;;;18.35;3.03;;;;;;;36.31;22.88;99615.38;6247392;28;20054;-61
2021/06/25 12:59:53;;;;;;;17.98;3.35;;;;;;;36.20;23.04;99614.59;6246516;28;20119;-61
2021/06/25 13:02:54;;;;;;;18.75;3.50;;;;;;;35.81;23.25;99598.00;6233415;28;20068;-62
2021/06/25 13:05:55;;;;;;;30.63;3.22;;;;;;;35.76;24.28;99595.31;6221205;28;20046;-62
2021/06/25 13:08:58;;;;;;;15.45;3.22;;;;;;;35.65;23.29;99586.34;6222334;28;20054;-63
2021/06/25 13:12:17;;;;;;;18.92;3.15;;;;;;;35.81;22.73;99587.97;6221055;28;20080;-66
2021/06/25 13:15:18;;;;;;;19.23;3.80;;;;;;;35.83;23.76;99588.53;6222460;28;20073;-65
2021/06/25 13:18:21;;;;;;;17.60;3.60;;;;;;;35.74;24.24;99587.44;6220958;28;20046;-66
2021/06/25 13:21:29;;;;;;;20.33;3.38;;;;;;;35.83;22.73;99588.53;6221454;28;20045;-65
2021/06/25 13:24:35;;;;;;;14.90;2.80;;;;;;;35.82;23.08;99581.44;6221540;28;20046;-63
2021/06/25 13:27:37;;;;;;;20.05;3.40;;;;;;;35.80;23.35;99580.91;6221661;28;20042;-64
2021/06/25 13:30:39;;;;;;;21.50;3.45;;;;;;;35.97;22.59;99588.75;6236759;28;20054;-63
2021/06/25 13:33:41;;;;;;;17.23;3.30;;;;;;;35.93;23.46;99574.09;6228851;28;20050;-63
2021/06/25 13:37:06;;;;;;;20.50;3.60;;;;;;;35.99;22.79;99578.44;6245225;28;20084;-62
2021/06/25 13:40:16;;;;;;;23.60;3.63;;;;;;;36.13;22.61;99575.19;6260362;28;20067;-62
2021/06/25 13:43:22;;;;;;;28.40;3.75;;;;;;;36.02;23.71;99579.81;6249419;28;20128;-61
2021/06/25 13:46:27;;;;;;;22.98;3.85;;;;;;;35.81;24.07;99568.97;6250414;28;20048;-61
2021/06/25 13:49:31;;;;;;;24.30;4.15;;;;;;;35.68;23.77;99583.09;6250147;28;20423;-62
2021/06/25 13:52:31;;;;;;;26.48;3.85;;;;;;;35.19;23.83;99576.25;6250074;28;20072;-62
2021/06/25 13:55:32;;;;;;;26.48;3.70;;;;;;;35.00;24.58;99578.56;6232478;28;20038;-62
2021/06/25 13:58:55;;;;;;;29.80;4.05;;;;;;;34.76;24.28;99580.94;6249742;28;20522;-63
2021/06/25 14:01:56;;;;;;;24.42;4.32;;;;;;;34.82;25.05;99589.88;6249932;28;20044;-63
2021/06/25 14:05:10;;;;;;;26.60;3.78;;;;;;;34.75;24.92;99587.44;6249811;28;20049;-63
2021/06/25 14:08:11;;;;;;;30.23;4.15;;;;;;;34.87;24.37;99589.94;6231983;28;20499;-62
2021/06/25 14:11:13;;;;;;;20.08;3.60;;;;;;;34.63;24.49;99582.19;6250058;28;20099;-62
2021/06/25 14:14:14;;;;;;;15.85;3.20;;;;;;;34.66;25.17;99589.03;6248576;28;20042;-63
2021/06/25 14:17:15;;;;;;;16.50;3.50;;;;;;;34.56;24.42;99581.63;6249776;28;20071;-62
2021/06/25 14:20:16;;;;;;;35.95;4.50;;;;;;;34.51;24.41;99578.88;6249514;28;20041;-63
2021/06/25 14:23:17;;;;;;;28.00;4.15;;;;;;;34.49;25.39;99559.38;6231850;28;20099;-63
2021/06/25 14:26:20;;;;;;;20.30;3.25;;;;;;;34.38;24.87;99560.41;6249418;28;20049;-62
2021/06/25 14:29:23;;;;;;;17.48;3.30;;;;;;;34.28;24.77;99575.50;6249219;28;20072;-62